Time;durP1;ratioP1;P1;durP2;ratioP2;P2;SDS_P1;SDS_P2;PMS_P1;PMS_P2;Temp;Humidity;BMP_temperature;BMP_pressure;BME280_temperature;BME280_humidity;BME280_pressure;Samples;Min_cycle;Max_cycle;Signal;HPM_P1;HPM_P2
2022/04/19 00:00:54;;;;;;;11.18;9.35;;;;;;;;;;5014422;28;94954;-73
2022/04/19 00:03:21;;;;;;;16.45;10.02;;;;;;;;;;4973249;28;94112;-73
2022/04/19 00:05:47;;;;;;;16.75;9.73;;;;;;;;;;4971498;28;92599;-74
2022/04/19 00:08:14;;;;;;;10.48;9.43;;;;;;;;;;5009151;28;94262;-74
2022/04/19 00:10:42;;;;;;;14.27;9.88;;;;;;;;;;5012201;28;94244;-74
2022/04/19 00:13:09;;;;;;;11.18;10.02;;;;;;;;;;5003493;28;93046;-73
2022/04/19 00:15:38;;;;;;;18.05;10.00;;;;;;;;;;5002003;28;94192;-73
2022/04/19 00:18:06;;;;;;;14.23;10.38;;;;;;;;;;5011983;28;92440;-73
2022/04/19 00:20:33;;;;;;;11.82;9.80;;;;;;;;;;5011888;28;94210;-73
2022/04/19 00:23:00;;;;;;;11.95;10.75;;;;;;;;;;5007721;28;94382;-73
2022/04/19 00:25:26;;;;;;;11.85;10.35;;;;;;;;;;5009608;28;96213;-73
2022/04/19 00:27:53;;;;;;;18.33;11.93;;;;;;;;;;5009192;28;96423;-74
2022/04/19 00:30:19;;;;;;;14.88;10.13;;;;;;;;;;5011406;28;93480;-73
2022/04/19 00:32:46;;;;;;;10.85;9.75;;;;;;;;;;5009631;28;92490;-73
2022/04/19 00:35:13;;;;;;;13.90;9.95;;;;;;;;;;5009881;28;94051;-73
2022/04/19 00:37:39;;;;;;;14.30;8.88;;;;;;;;;;5010071;28;92925;-73
2022/04/19 00:40:07;;;;;;;14.63;9.63;;;;;;;;;;5013853;28;93157;-73
2022/04/19 00:42:34;;;;;;;11.13;10.07;;;;;;;;;;5001853;28;93575;-73
2022/04/19 00:45:02;;;;;;;10.80;9.45;;;;;;;;;;4994888;28;92520;-73
2022/04/19 00:47:35;;;;;;;12.20;9.82;;;;;;;;;;5003768;28;93853;-73
2022/04/19 00:50:06;;;;;;;11.30;9.73;;;;;;;;;;5012100;28;96450;-73
2022/04/19 00:52:35;;;;;;;12.43;9.68;;;;;;;;;;5012214;28;92509;-73
2022/04/19 00:55:02;;;;;;;12.13;10.60;;;;;;;;;;5013201;28;95545;-73
2022/04/19 00:57:33;;;;;;;13.90;10.75;;;;;;;;;;5011150;28;95211;-74
2022/04/19 01:00:00;;;;;;;13.35;10.70;;;;;;;;;;5013324;28;92592;-73
2022/04/19 01:02:27;;;;;;;16.30;11.07;;;;;;;;;;5012748;28;94050;-73
2022/04/19 01:04:57;;;;;;;11.82;10.60;;;;;;;;;;5013008;28;92516;-74
2022/04/19 01:07:23;;;;;;;15.15;11.93;;;;;;;;;;5013189;28;93268;-74
2022/04/19 01:09:54;;;;;;;13.57;11.95;;;;;;;;;;5009582;28;94314;-73
2022/04/19 01:15:07;;;;;;;13.52;11.45;;;;;;;;;;5011345;28;95478;-74
2022/04/19 01:17:54;;;;;;;14.07;11.70;;;;;;;;;;5012013;28;93874;-74
2022/04/19 01:20:20;;;;;;;15.82;11.93;;;;;;;;;;5012706;28;93002;-74
2022/04/19 01:22:50;;;;;;;21.33;12.90;;;;;;;;;;5012170;28;92893;-74
2022/04/19 01:25:20;;;;;;;23.45;12.45;;;;;;;;;;5015744;28;93218;-74
2022/04/19 01:27:47;;;;;;;15.75;11.98;;;;;;;;;;5012246;28;94337;-74
2022/04/19 01:30:15;;;;;;;15.18;11.55;;;;;;;;;;5009963;28;94389;-74
2022/04/19 01:32:42;;;;;;;16.50;13.32;;;;;;;;;;5014229;28;91716;-74
2022/04/19 01:35:10;;;;;;;14.18;12.18;;;;;;;;;;5009981;28;94872;-74
2022/04/19 01:37:40;;;;;;;19.35;12.25;;;;;;;;;;5011410;28;93166;-74
2022/04/19 01:40:17;;;;;;;13.95;11.25;;;;;;;;;;5005133;28;94942;-74
2022/04/19 01:42:46;;;;;;;17.48;11.65;;;;;;;;;;5012134;28;97607;-74
2022/04/19 01:45:13;;;;;;;15.73;11.40;;;;;;;;;;5009893;28;95207;-74
2022/04/19 01:47:40;;;;;;;17.23;10.52;;;;;;;;;;5015508;28;93026;-74
2022/04/19 01:50:10;;;;;;;12.02;10.80;;;;;;;;;;5011328;28;93929;-74
2022/04/19 01:52:37;;;;;;;12.32;10.32;;;;;;;;;;5012030;28;92860;-74
2022/04/19 01:55:07;;;;;;;13.30;10.00;;;;;;;;;;5011222;28;93914;-74
2022/04/19 01:57:34;;;;;;;13.43;10.10;;;;;;;;;;5011881;28;93728;-74
2022/04/19 02:00:05;;;;;;;12.32;9.57;;;;;;;;;;5011272;28;92495;-74
2022/04/19 02:02:47;;;;;;;13.68;9.15;;;;;;;;;;5012898;28;93869;-74
2022/04/19 02:05:18;;;;;;;17.00;9.63;;;;;;;;;;5008946;28;97548;-74
2022/04/19 02:07:45;;;;;;;12.52;9.35;;;;;;;;;;5012515;28;92514;-74
2022/04/19 02:10:14;;;;;;;11.75;9.88;;;;;;;;;;5009404;28;94682;-74
2022/04/19 02:12:42;;;;;;;10.45;8.07;;;;;;;;;;5011566;28;92903;-74
2022/04/19 02:15:38;;;;;;;13.15;10.32;;;;;;;;;;4990012;28;92958;-74
2022/04/19 02:18:18;;;;;;;10.60;8.75;;;;;;;;;;4992734;28;95251;-74
2022/04/19 02:20:45;;;;;;;9.82;8.82;;;;;;;;;;5006727;28;93248;-74
2022/04/19 02:23:13;;;;;;;12.90;9.07;;;;;;;;;;5015112;28;91689;-73
2022/04/19 02:25:39;;;;;;;12.15;9.07;;;;;;;;;;5013390;28;94109;-74
2022/04/19 02:28:10;;;;;;;13.20;9.27;;;;;;;;;;5011676;28;92967;-73
2022/04/19 02:30:42;;;;;;;13.25;9.43;;;;;;;;;;5009435;28;94927;-73
2022/04/19 02:33:14;;;;;;;9.65;8.63;;;;;;;;;;5013308;28;95895;-73
2022/04/19 02:35:41;;;;;;;10.48;8.57;;;;;;;;;;5013491;28;94254;-73
2022/04/19 02:38:09;;;;;;;16.00;10.52;;;;;;;;;;5010134;28;95824;-73
2022/04/19 02:40:42;;;;;;;13.10;8.90;;;;;;;;;;4986842;28;92568;-73
2022/04/19 02:43:09;;;;;;;10.50;8.98;;;;;;;;;;4993370;28;95260;-73
2022/04/19 02:45:36;;;;;;;9.30;7.80;;;;;;;;;;5011937;28;96054;-73
2022/04/19 02:48:07;;;;;;;11.20;8.88;;;;;;;;;;5010694;28;91857;-73
2022/04/19 02:50:40;;;;;;;9.95;8.95;;;;;;;;;;5010431;28;94586;-73
2022/04/19 02:53:07;;;;;;;9.32;8.43;;;;;;;;;;5014567;28;94447;-73
2022/04/19 02:55:36;;;;;;;10.57;8.70;;;;;;;;;;5009285;28;95762;-74
2022/04/19 02:58:03;;;;;;;10.55;8.85;;;;;;;;;;5011901;28;94147;-73
2022/04/19 03:00:30;;;;;;;9.80;8.85;;;;;;;;;;5010227;28;92619;-73
2022/04/19 03:02:56;;;;;;;9.82;8.52;;;;;;;;;;5012575;28;94100;-73
2022/04/19 03:05:22;;;;;;;9.35;8.35;;;;;;;;;;5008703;28;95200;-73
2022/04/19 03:07:49;;;;;;;10.13;8.52;;;;;;;;;;5013371;28;92502;-73
2022/04/19 03:10:16;;;;;;;11.27;8.05;;;;;;;;;;5007068;28;96184;-73
2022/04/19 03:12:43;;;;;;;11.57;8.27;;;;;;;;;;5011759;28;92609;-73
2022/04/19 03:15:20;;;;;;;13.10;8.95;;;;;;;;;;5009740;28;93201;-73
2022/04/19 03:17:48;;;;;;;9.13;8.32;;;;;;;;;;5011370;28;95796;-73
2022/04/19 03:20:19;;;;;;;11.05;8.35;;;;;;;;;;5007914;28;94885;-73
2022/04/19 03:28:21;;;;;;;17.38;8.30;;;;;;;;;;5011740;28;93258;-73
2022/04/19 03:30:47;;;;;;;9.65;8.75;;;;;;;;;;5008406;28;93842;-73
2022/04/19 03:33:16;;;;;;;10.57;9.48;;;;;;;;;;5011394;28;94259;-73
2022/04/19 03:35:43;;;;;;;9.48;8.43;;;;;;;;;;5011290;28;93841;-73
2022/04/19 03:38:10;;;;;;;11.68;8.98;;;;;;;;;;5012189;28;93895;-73
2022/04/19 03:40:36;;;;;;;10.13;9.13;;;;;;;;;;5005940;28;93872;-73
2022/04/19 03:43:07;;;;;;;15.98;8.90;;;;;;;;;;5010933;28;95206;-73
2022/04/19 03:45:34;;;;;;;12.18;8.82;;;;;;;;;;5008032;28;97994;-73
2022/04/19 03:48:02;;;;;;;9.38;8.48;;;;;;;;;;5009720;28;92564;-73
2022/04/19 03:50:28;;;;;;;11.60;9.02;;;;;;;;;;5007590;28;93905;-73
2022/04/19 03:52:55;;;;;;;12.15;8.32;;;;;;;;;;5010712;28;95633;-73
2022/04/19 03:55:23;;;;;;;10.05;9.02;;;;;;;;;;5009553;28;92599;-73
2022/04/19 03:57:50;;;;;;;9.27;8.38;;;;;;;;;;5010309;28;96194;-73
2022/04/19 04:00:17;;;;;;;9.45;8.55;;;;;;;;;;5012545;28;95585;-73
2022/04/19 04:02:45;;;;;;;10.63;9.25;;;;;;;;;;5011365;28;95122;-73
2022/04/19 04:05:21;;;;;;;10.82;8.55;;;;;;;;;;5008864;28;95297;-73
2022/04/19 04:07:47;;;;;;;9.88;8.68;;;;;;;;;;5010758;28;92568;-73
2022/04/19 04:10:18;;;;;;;10.15;9.15;;;;;;;;;;4999874;28;96277;-73
2022/04/19 04:12:44;;;;;;;9.50;8.52;;;;;;;;;;4989963;28;93249;-73
2022/04/19 04:15:11;;;;;;;9.93;9.02;;;;;;;;;;4997875;28;94280;-73
2022/04/19 04:17:38;;;;;;;9.90;8.55;;;;;;;;;;4974306;28;95737;-73
2022/04/19 04:20:04;;;;;;;10.30;9.35;;;;;;;;;;4995804;28;93231;-73
2022/04/19 04:22:31;;;;;;;13.82;8.68;;;;;;;;;;5017420;28;93198;-73
2022/04/19 04:24:57;;;;;;;12.15;9.65;;;;;;;;;;5012796;28;93170;-73
2022/04/19 04:27:24;;;;;;;11.70;8.90;;;;;;;;;;5013833;28;92196;-73
2022/04/19 04:29:51;;;;;;;10.52;8.70;;;;;;;;;;5014588;28;93557;-73
2022/04/19 04:32:17;;;;;;;11.63;9.32;;;;;;;;;;5013668;28;93174;-73
2022/04/19 04:34:44;;;;;;;9.27;8.35;;;;;;;;;;5010232;28;95303;-73
2022/04/19 04:37:11;;;;;;;14.68;9.50;;;;;;;;;;5015497;28;96357;-73
2022/04/19 04:39:45;;;;;;;10.65;8.90;;;;;;;;;;5003244;28;95463;-73
2022/04/19 04:42:23;;;;;;;14.27;9.25;;;;;;;;;;5012662;28;92486;-73
2022/04/19 04:44:50;;;;;;;9.93;9.00;;;;;;;;;;5016017;28;92908;-73
2022/04/19 04:50:02;;;;;;;13.25;9.55;;;;;;;;;;5008534;28;94528;-73
2022/04/19 04:52:30;;;;;;;14.02;10.13;;;;;;;;;;4994441;28;92794;-73
2022/04/19 04:54:56;;;;;;;12.43;10.40;;;;;;;;;;4995319;28;92594;-73
2022/04/19 04:57:26;;;;;;;12.93;9.18;;;;;;;;;;5012889;28;95257;-73
2022/04/19 04:59:54;;;;;;;12.05;10.13;;;;;;;;;;5009094;28;97725;-73
2022/04/19 05:02:23;;;;;;;10.68;9.57;;;;;;;;;;4991551;28;93305;-73
2022/04/19 05:04:51;;;;;;;10.73;9.63;;;;;;;;;;5014740;28;95825;-73
2022/04/19 05:07:18;;;;;;;20.33;9.93;;;;;;;;;;5013612;28;92597;-73
2022/04/19 05:09:48;;;;;;;11.32;9.90;;;;;;;;;;4996928;28;93008;-73
2022/04/19 05:12:15;;;;;;;14.85;10.18;;;;;;;;;;5013429;28;94394;-73
2022/04/19 05:14:42;;;;;;;17.50;9.55;;;;;;;;;;5010570;28;92560;-73
2022/04/19 05:17:08;;;;;;;13.93;10.45;;;;;;;;;;5014081;28;94195;-73
2022/04/19 05:19:39;;;;;;;12.55;10.57;;;;;;;;;;5010916;28;95446;-73
2022/04/19 05:22:06;;;;;;;11.20;9.95;;;;;;;;;;5012433;28;92954;-73
2022/04/19 05:24:33;;;;;;;11.68;10.48;;;;;;;;;;5011507;28;95437;-73
2022/04/19 05:26:59;;;;;;;12.98;9.80;;;;;;;;;;5013571;28;94824;-73
2022/04/19 05:29:26;;;;;;;14.27;9.63;;;;;;;;;;5010578;28;93883;-73
2022/04/19 05:31:54;;;;;;;11.35;9.98;;;;;;;;;;5013240;28;93125;-73
2022/04/19 05:34:21;;;;;;;11.50;9.35;;;;;;;;;;5010110;28;92580;-73
2022/04/19 05:36:47;;;;;;;19.80;10.73;;;;;;;;;;5012584;28;95106;-73
2022/04/19 05:39:15;;;;;;;13.43;10.80;;;;;;;;;;4995386;28;93263;-73
2022/04/19 05:41:42;;;;;;;17.55;10.60;;;;;;;;;;4992796;28;91834;-74
2022/04/19 05:44:09;;;;;;;11.07;9.90;;;;;;;;;;5006535;28;94178;-73
2022/04/19 05:46:36;;;;;;;11.25;9.60;;;;;;;;;;5012532;28;93125;-73
2022/04/19 05:49:04;;;;;;;15.02;9.93;;;;;;;;;;5013051;28;95060;-74
2022/04/19 05:51:32;;;;;;;13.30;10.40;;;;;;;;;;5011934;28;95518;-73
2022/04/19 05:54:01;;;;;;;12.23;10.82;;;;;;;;;;5011565;28;92620;-74
2022/04/19 05:56:27;;;;;;;12.35;9.63;;;;;;;;;;5011889;28;95562;-72
2022/04/19 05:58:54;;;;;;;14.30;10.50;;;;;;;;;;5010311;28;93656;-73
2022/04/19 06:01:22;;;;;;;16.70;9.35;;;;;;;;;;5011903;28;92672;-73
2022/04/19 06:06:39;;;;;;;16.33;10.18;;;;;;;;;;5014620;28;91709;-73
2022/04/19 06:09:06;;;;;;;11.55;9.38;;;;;;;;;;4996505;28;94659;-73
2022/04/19 06:11:32;;;;;;;14.68;10.02;;;;;;;;;;4994541;28;95100;-73
2022/04/19 06:13:59;;;;;;;12.82;9.82;;;;;;;;;;5002772;28;95298;-73
2022/04/19 06:16:26;;;;;;;12.27;10.10;;;;;;;;;;5004312;28;96486;-73
2022/04/19 06:18:55;;;;;;;12.43;10.18;;;;;;;;;;5002117;28;95588;-72
2022/04/19 06:21:23;;;;;;;11.45;9.57;;;;;;;;;;5004395;28;92590;-72
2022/04/19 06:23:50;;;;;;;14.98;10.25;;;;;;;;;;5002225;28;94472;-71
2022/04/19 06:26:17;;;;;;;15.02;9.30;;;;;;;;;;5001414;28;95150;-73
2022/04/19 06:28:44;;;;;;;17.63;10.45;;;;;;;;;;4999080;28;92522;-74
2022/04/19 06:31:16;;;;;;;17.83;11.07;;;;;;;;;;4998055;28;92736;-75
2022/04/19 06:33:55;;;;;;;11.50;10.35;;;;;;;;;;4986446;28;95703;-74
2022/04/19 06:36:27;;;;;;;23.85;9.90;;;;;;;;;;5009524;28;95292;-74
2022/04/19 06:38:54;;;;;;;13.80;10.27;;;;;;;;;;4994584;28;98075;-75
2022/04/19 06:41:20;;;;;;;16.90;10.32;;;;;;;;;;4991095;28;92619;-74
2022/04/19 06:43:47;;;;;;;15.90;10.90;;;;;;;;;;5009892;28;95199;-75
2022/04/19 06:46:20;;;;;;;13.52;10.43;;;;;;;;;;5009127;28;95645;-75
2022/04/19 06:48:58;;;;;;;14.25;10.00;;;;;;;;;;5003622;28;92645;-74
2022/04/19 06:51:29;;;;;;;13.18;10.10;;;;;;;;;;4978695;28;96238;-75
2022/04/19 06:54:02;;;;;;;17.60;11.18;;;;;;;;;;4981015;28;95411;-74
2022/04/19 06:56:38;;;;;;;19.23;10.23;;;;;;;;;;5007137;28;91717;-75
2022/04/19 06:59:04;;;;;;;14.02;10.73;;;;;;;;;;5011212;28;96061;-75
2022/04/19 07:01:37;;;;;;;16.85;11.00;;;;;;;;;;4995809;28;92810;-75
2022/04/19 07:04:22;;;;;;;14.95;10.30;;;;;;;;;;4972801;28;95729;-75
2022/04/19 07:06:51;;;;;;;11.70;8.98;;;;;;;;;;5009641;28;95550;-75
2022/04/19 07:09:19;;;;;;;18.63;9.70;;;;;;;;;;5005365;28;94442;-74
2022/04/19 07:11:45;;;;;;;12.43;8.38;;;;;;;;;;5011289;28;93833;-75
2022/04/19 07:14:20;;;;;;;14.38;9.35;;;;;;;;;;5003661;28;96390;-75
2022/04/19 07:16:58;;;;;;;11.38;10.15;;;;;;;;;;5016060;28;92469;-74
2022/04/19 07:26:37;;;;;;;10.75;9.18;;;;;;;;;;5008497;28;95911;-73
2022/04/19 07:27:58;;;;;;;12.40;8.80;;;;;;;;;;4989846;28;94923;-74
2022/04/19 07:30:28;;;;;;;13.50;7.68;;;;;;;;;;5007984;28;95563;-74
2022/04/19 07:32:55;;;;;;;9.27;8.13;;;;;;;;;;5010873;28;95214;-73
2022/04/19 07:35:26;;;;;;;13.70;8.57;;;;;;;;;;5005418;28;95794;-74
2022/04/19 07:37:52;;;;;;;15.70;6.80;;;;;;;;;;5009390;28;92483;-74
2022/04/19 07:40:23;;;;;;;9.05;7.38;;;;;;;;;;5007662;28;95161;-74
2022/04/19 07:42:50;;;;;;;7.90;6.53;;;;;;;;;;4998821;28;93167;-73
2022/04/19 07:45:16;;;;;;;10.43;7.82;;;;;;;;;;4997508;28;93093;-74
2022/04/19 07:47:43;;;;;;;8.63;7.80;;;;;;;;;;4991600;28;93276;-73
2022/04/19 07:50:10;;;;;;;8.52;7.18;;;;;;;;;;4993337;28;93219;-74
2022/04/19 07:52:37;;;;;;;9.63;7.05;;;;;;;;;;4990135;28;95116;-76
2022/04/19 07:55:03;;;;;;;12.50;7.28;;;;;;;;;;4999885;28;97916;-76
2022/04/19 07:57:30;;;;;;;11.60;7.65;;;;;;;;;;4983331;28;92637;-76
2022/04/19 07:59:56;;;;;;;7.50;6.80;;;;;;;;;;5005840;28;95380;-76
2022/04/19 08:02:28;;;;;;;7.45;6.50;;;;;;;;;;4990077;28;95144;-76
2022/04/19 08:04:54;;;;;;;10.70;6.05;;;;;;;;;;5007621;28;92660;-76
2022/04/19 08:07:21;;;;;;;9.27;6.72;;;;;;;;;;5013233;28;95779;-75
2022/04/19 08:09:48;;;;;;;7.07;6.38;;;;;;;;;;5014019;28;92607;-75
2022/04/19 08:12:15;;;;;;;7.82;6.68;;;;;;;;;;5013985;28;92778;-75
2022/04/19 08:14:41;;;;;;;6.80;5.97;;;;;;;;;;4998163;28;92934;-75
2022/04/19 08:17:08;;;;;;;10.82;6.63;;;;;;;;;;4987824;28;92641;-75
2022/04/19 08:19:34;;;;;;;8.13;5.57;;;;;;;;;;5013703;28;94904;-75
2022/04/19 08:22:01;;;;;;;6.45;4.93;;;;;;;;;;5012277;28;95907;-75
2022/04/19 08:24:32;;;;;;;7.35;5.93;;;;;;;;;;5001531;28;92863;-75
2022/04/19 08:26:58;;;;;;;6.18;5.40;;;;;;;;;;5002684;28;94989;-75
2022/04/19 08:29:25;;;;;;;6.07;5.55;;;;;;;;;;5014301;28;93004;-75
2022/04/19 08:31:51;;;;;;;11.25;6.88;;;;;;;;;;5010968;28;95192;-75
2022/04/19 08:34:20;;;;;;;10.40;5.90;;;;;;;;;;5013582;28;95016;-75
2022/04/19 08:36:47;;;;;;;6.88;6.18;;;;;;;;;;5005304;28;91767;-75
2022/04/19 08:39:13;;;;;;;7.93;5.57;;;;;;;;;;4994776;28;92883;-75
2022/04/19 08:41:41;;;;;;;5.97;5.43;;;;;;;;;;4994929;28;92443;-75
2022/04/19 08:44:08;;;;;;;7.60;5.97;;;;;;;;;;4992717;28;95037;-75
2022/04/19 08:46:41;;;;;;;7.25;4.78;;;;;;;;;;5005831;28;96726;-75
2022/04/19 08:49:08;;;;;;;8.75;5.53;;;;;;;;;;5015476;28;92451;-75
2022/04/19 08:51:36;;;;;;;7.78;5.70;;;;;;;;;;5012871;28;93093;-75
2022/04/19 08:59:32;;;;;;;7.80;5.70;;;;;;;;;;5012055;28;94729;-75
2022/04/19 09:02:02;;;;;;;6.93;5.50;;;;;;;;;;5014880;28;93407;-75
2022/04/19 09:04:28;;;;;;;5.63;5.03;;;;;;;;;;5009902;28;93089;-75
2022/04/19 09:06:56;;;;;;;6.90;5.15;;;;;;;;;;5017283;28;94260;-74
2022/04/19 09:09:23;;;;;;;8.60;5.25;;;;;;;;;;5010486;28;95333;-74
2022/04/19 09:11:50;;;;;;;5.43;4.85;;;;;;;;;;5009522;28;95798;-75
2022/04/19 09:14:17;;;;;;;6.35;5.75;;;;;;;;;;5011138;28;94443;-75
2022/04/19 09:16:44;;;;;;;8.43;5.30;;;;;;;;;;5013539;28;92862;-75
2022/04/19 09:19:17;;;;;;;9.10;6.20;;;;;;;;;;5014933;28;94881;-74
2022/04/19 09:21:43;;;;;;;;;;;;;;;;;;5012529;28;93471;-75
2022/04/19 09:24:19;;;;;;;9.18;6.00;;;;;;;;;;5002815;28;119034;-75
2022/04/19 09:26:47;;;;;;;6.90;6.18;;;;;;;;;;5014686;28;95098;-75
2022/04/19 09:29:21;;;;;;;8.45;5.85;;;;;;;;;;5017166;28;93456;-74
2022/04/19 09:31:50;;;;;;;6.43;5.43;;;;;;;;;;5012060;28;94710;-75
2022/04/19 09:34:46;;;;;;;6.32;5.80;;;;;;;;;;5012957;28;96603;-74
2022/04/19 09:37:13;;;;;;;7.22;6.43;;;;;;;;;;4978731;28;92648;-74
2022/04/19 09:39:40;;;;;;;6.45;5.05;;;;;;;;;;5013375;28;93052;-74
2022/04/19 09:42:07;;;;;;;7.32;5.80;;;;;;;;;;5011535;28;94207;-76
2022/04/19 09:44:41;;;;;;;9.63;6.55;;;;;;;;;;4996541;28;92554;-75
2022/04/19 09:47:11;;;;;;;8.07;5.28;;;;;;;;;;5008137;28;92896;-75
2022/04/19 09:49:41;;;;;;;5.65;5.03;;;;;;;;;;5006476;28;96560;-76
2022/04/19 09:52:07;;;;;;;8.45;5.80;;;;;;;;;;5007091;28;91722;-75
2022/04/19 09:54:34;;;;;;;6.43;5.30;;;;;;;;;;5014088;28;94351;-76
2022/04/19 09:57:07;;;;;;;6.95;5.60;;;;;;;;;;5011776;28;94015;-76
2022/04/19 09:59:35;;;;;;;9.05;6.22;;;;;;;;;;5005012;28;94832;-76
2022/04/19 10:10:18;;;;;;;7.00;5.68;;;;;;;;;;4988489;28;94176;-76
2022/04/19 10:12:45;;;;;;;9.13;5.40;;;;;;;;;;4993656;28;92764;-74
2022/04/19 10:15:12;;;;;;;8.45;5.90;;;;;;;;;;4991151;28;93932;-75
2022/04/19 10:17:38;;;;;;;6.82;5.93;;;;;;;;;;4984279;28;93331;-76
2022/04/19 10:20:05;;;;;;;7.55;6.25;;;;;;;;;;4997775;28;93227;-75
2022/04/19 10:22:32;;;;;;;8.80;5.95;;;;;;;;;;4996810;28;93964;-75
2022/04/19 10:24:58;;;;;;;5.93;4.40;;;;;;;;;;4990774;28;94884;-74
2022/04/19 10:27:31;;;;;;;7.97;5.68;;;;;;;;;;4987365;28;95788;-76
2022/04/19 10:29:57;;;;;;;6.57;4.38;;;;;;;;;;4990302;28;94563;-75
2022/04/19 10:32:33;;;;;;;4.53;4.07;;;;;;;;;;4990591;28;93179;-75
2022/04/19 10:35:00;;;;;;;7.50;4.35;;;;;;;;;;4993712;28;93632;-76
2022/04/19 10:37:27;;;;;;;6.10;5.38;;;;;;;;;;4982863;28;94187;-76
2022/04/19 10:39:59;;;;;;;5.90;5.10;;;;;;;;;;4991835;28;93154;-76
2022/04/19 10:42:37;;;;;;;5.25;4.75;;;;;;;;;;4987046;28;93866;-75
2022/04/19 10:45:13;;;;;;;6.00;4.43;;;;;;;;;;4988093;28;92448;-75
2022/04/19 10:47:51;;;;;;;5.80;5.18;;;;;;;;;;4985227;28;93732;-75
2022/04/19 10:50:32;;;;;;;4.47;4.07;;;;;;;;;;4982382;28;96653;-75
2022/04/19 10:52:59;;;;;;;5.82;4.40;;;;;;;;;;4973315;28;92495;-75
2022/04/19 10:55:27;;;;;;;5.50;4.35;;;;;;;;;;4973406;28;93876;-75
2022/04/19 10:58:09;;;;;;;5.45;4.95;;;;;;;;;;4975764;28;94410;-75
2022/04/19 11:00:35;;;;;;;5.50;5.00;;;;;;;;;;4988161;28;92453;-75
2022/04/19 11:03:25;;;;;;;6.50;5.40;;;;;;;;;;4989799;28;94067;-75
2022/04/19 11:05:52;;;;;;;5.75;4.50;;;;;;;;;;4973525;28;92451;-75
2022/04/19 11:08:24;;;;;;;5.68;5.05;;;;;;;;;;4972590;28;93952;-75
2022/04/19 11:10:57;;;;;;;6.53;5.00;;;;;;;;;;4973623;28;93507;-76
2022/04/19 11:13:26;;;;;;;6.18;5.32;;;;;;;;;;4972361;28;92614;-75
2022/04/19 11:15:57;;;;;;;5.78;5.10;;;;;;;;;;4991694;28;94973;-75
2022/04/19 11:18:25;;;;;;;6.57;5.53;;;;;;;;;;4983359;28;93159;-74
2022/04/19 11:20:53;;;;;;;6.82;5.03;;;;;;;;;;5012842;28;92706;-74
2022/04/19 11:23:20;;;;;;;6.72;5.38;;;;;;;;;;4994549;28;93383;-75
2022/04/19 11:25:48;;;;;;;6.88;5.28;;;;;;;;;;4992086;28;93489;-74
2022/04/19 11:28:18;;;;;;;6.70;5.65;;;;;;;;;;4992437;28;94033;-74
2022/04/19 11:30:46;;;;;;;5.82;5.25;;;;;;;;;;4997443;28;93377;-74
2022/04/19 11:33:20;;;;;;;5.53;4.90;;;;;;;;;;5013566;28;91876;-74
2022/04/19 11:35:57;;;;;;;5.93;5.20;;;;;;;;;;4995114;28;93359;-74
2022/04/19 11:38:23;;;;;;;7.45;4.82;;;;;;;;;;4992333;28;94028;-74
2022/04/19 11:49:09;;;;;;;8.88;5.07;;;;;;;;;;4972383;28;93008;-74
2022/04/19 11:51:37;;;;;;;6.22;4.70;;;;;;;;;;4987704;28;94049;-74
2022/04/19 11:54:04;;;;;;;8.38;6.00;;;;;;;;;;4992679;28;92519;-74
2022/04/19 11:56:31;;;;;;;8.02;6.75;;;;;;;;;;4991137;28;93038;-74
2022/04/19 11:58:58;;;;;;;8.20;5.07;;;;;;;;;;4993444;28;93329;-74
2022/04/19 12:01:25;;;;;;;6.78;5.32;;;;;;;;;;5013171;28;92492;-74
2022/04/19 12:03:52;;;;;;;13.00;7.03;;;;;;;;;;5013444;28;94030;-74
2022/04/19 12:06:19;;;;;;;6.78;5.57;;;;;;;;;;5016525;28;96530;-75
2022/04/19 12:08:49;;;;;;;7.90;5.65;;;;;;;;;;5004619;28;97634;-74
2022/04/19 12:11:26;;;;;;;6.82;5.10;;;;;;;;;;4973057;28;94428;-74
2022/04/19 12:13:53;;;;;;;8.05;5.65;;;;;;;;;;4972871;28;92438;-74
2022/04/19 12:16:39;;;;;;;10.32;5.32;;;;;;;;;;4972942;28;94063;-74
2022/04/19 12:19:09;;;;;;;10.15;5.55;;;;;;;;;;4972555;28;94189;-74
2022/04/19 12:21:39;;;;;;;6.25;5.40;;;;;;;;;;4977700;28;92952;-74
2022/04/19 12:24:05;;;;;;;6.30;5.70;;;;;;;;;;4991943;28;93098;-74
2022/04/19 12:26:32;;;;;;;6.80;5.30;;;;;;;;;;4981471;28;92479;-74
2022/04/19 12:29:08;;;;;;;8.40;5.53;;;;;;;;;;4975556;28;92527;-74
2022/04/19 12:31:37;;;;;;;9.25;6.28;;;;;;;;;;4975231;28;95831;-74
2022/04/19 12:34:04;;;;;;;14.15;8.60;;;;;;;;;;4992011;28;92434;-74
2022/04/19 12:36:44;;;;;;;7.93;6.70;;;;;;;;;;5001910;28;94520;-74
2022/04/19 12:39:11;;;;;;;5.95;5.20;;;;;;;;;;5014819;28;95050;-74
2022/04/19 12:41:38;;;;;;;9.50;4.90;;;;;;;;;;5015096;28;92423;-74
2022/04/19 12:44:06;;;;;;;10.48;5.25;;;;;;;;;;4984850;28;94230;-74
2022/04/19 12:46:38;;;;;;;8.07;6.78;;;;;;;;;;4974231;28;94457;-74
2022/04/19 12:49:04;;;;;;;17.05;7.25;;;;;;;;;;4976297;28;92270;-74
2022/04/19 12:51:31;;;;;;;9.65;6.47;;;;;;;;;;4998229;28;92978;-74
2022/04/19 12:54:01;;;;;;;10.05;6.22;;;;;;;;;;4994985;28;93152;-73
2022/04/19 12:56:27;;;;;;;7.85;6.25;;;;;;;;;;4993329;28;96078;-74
2022/04/19 12:58:53;;;;;;;7.13;6.05;;;;;;;;;;4994044;28;94346;-74
2022/04/19 13:01:20;;;;;;;5.35;4.95;;;;;;;;;;4994160;28;93001;-73
2022/04/19 13:03:47;;;;;;;5.57;5.07;;;;;;;;;;4995147;28;94119;-74
2022/04/19 13:14:28;;;;;;;6.85;4.57;;;;;;;;;;4997616;28;93450;-75
2022/04/19 13:16:55;;;;;;;6.05;4.90;;;;;;;;;;4989566;28;93240;-72
2022/04/19 13:19:21;;;;;;;4.80;4.40;;;;;;;;;;4974848;28;94483;-71
2022/04/19 13:21:47;;;;;;;11.30;4.88;;;;;;;;;;4972756;28;95352;-74
2022/04/19 13:24:17;;;;;;;4.47;4.07;;;;;;;;;;4988311;28;96219;-74
2022/04/19 13:26:44;;;;;;;6.97;4.22;;;;;;;;;;4986404;28;94129;-77
2022/04/19 13:29:11;;;;;;;4.47;3.35;;;;;;;;;;4982894;28;94238;-73
2022/04/19 13:31:38;;;;;;;3.88;3.55;;;;;;;;;;4981516;28;93818;-75
2022/04/19 13:34:04;;;;;;;3.05;2.85;;;;;;;;;;4984939;28;94248;-73
2022/04/19 13:36:31;;;;;;;7.15;2.63;;;;;;;;;;4987258;28;93957;-73
2022/04/19 13:38:57;;;;;;;4.10;3.70;;;;;;;;;;4984160;28;93852;-74
2022/04/19 13:41:23;;;;;;;3.58;3.28;;;;;;;;;;4986471;28;92539;-76
2022/04/19 13:43:51;;;;;;;3.33;3.13;;;;;;;;;;4981495;28;94593;-75
2022/04/19 13:46:17;;;;;;;3.35;3.05;;;;;;;;;;4981277;28;96566;-74
2022/04/19 13:48:44;;;;;;;3.50;3.22;;;;;;;;;;4984465;28;93251;-75
2022/04/19 13:51:10;;;;;;;3.20;2.90;;;;;;;;;;4985481;28;94291;-75
2022/04/19 13:53:37;;;;;;;5.50;2.70;;;;;;;;;;4984407;28;94823;-75
2022/04/19 13:56:05;;;;;;;3.65;1.88;;;;;;;;;;4985169;28;93099;-75
2022/04/19 13:58:31;;;;;;;2.65;2.42;;;;;;;;;;4984921;28;92495;-74
2022/04/19 14:00:57;;;;;;;2.67;2.47;;;;;;;;;;4990238;28;92655;-74
2022/04/19 14:03:24;;;;;;;2.15;2.05;;;;;;;;;;4983572;28;93890;-75
2022/04/19 14:05:54;;;;;;;3.28;2.30;;;;;;;;;;4986946;28;94074;-75
2022/04/19 14:08:20;;;;;;;3.42;2.47;;;;;;;;;;4991772;28;93796;-72
2022/04/19 14:10:47;;;;;;;2.50;2.30;;;;;;;;;;4978816;28;95087;-75
2022/04/19 14:13:13;;;;;;;2.90;2.70;;;;;;;;;;4989800;28;94305;-72
2022/04/19 14:15:39;;;;;;;4.20;3.05;;;;;;;;;;4977149;28;92819;-72
2022/04/19 14:18:06;;;;;;;5.95;3.17;;;;;;;;;;4989952;28;93945;-74
2022/04/19 14:20:33;;;;;;;2.53;2.22;;;;;;;;;;4993478;28;92472;-73
2022/04/19 14:22:59;;;;;;;17.67;3.25;;;;;;;;;;4993828;28;93269;-73
2022/04/19 14:25:26;;;;;;;2.92;2.60;;;;;;;;;;4992351;28;94191;-73
2022/04/19 14:27:52;;;;;;;6.55;3.20;;;;;;;;;;4990918;28;91841;-73
2022/04/19 14:33:15;;;;;;;3.85;3.55;;;;;;;;;;4987392;28;93290;-73
2022/04/19 14:35:49;;;;;;;4.20;3.83;;;;;;;;;;4993603;28;94986;-74
2022/04/19 14:38:16;;;;;;;3.45;3.22;;;;;;;;;;4982875;28;95587;-73
2022/04/19 14:40:43;;;;;;;8.65;4.05;;;;;;;;;;4993605;28;93485;-73
2022/04/19 14:43:09;;;;;;;7.38;2.97;;;;;;;;;;4981503;28;93861;-73
2022/04/19 14:45:36;;;;;;;6.93;3.00;;;;;;;;;;4990112;28;94162;-74
2022/04/19 14:48:03;;;;;;;3.88;2.65;;;;;;;;;;4979532;28;92617;-74
2022/04/19 14:50:31;;;;;;;3.00;2.70;;;;;;;;;;4992346;28;93268;-74
2022/04/19 14:52:57;;;;;;;2.13;2.03;;;;;;;;;;4992556;28;92643;-74
2022/04/19 14:55:24;;;;;;;2.60;2.40;;;;;;;;;;4993706;28;92967;-76
2022/04/19 14:57:51;;;;;;;8.00;2.28;;;;;;;;;;4993556;28;93741;-76
2022/04/19 15:00:19;;;;;;;2.30;2.10;;;;;;;;;;5001437;28;96453;-76
2022/04/19 15:02:46;;;;;;;1.83;1.73;;;;;;;;;;5015986;28;92479;-75
2022/04/19 15:05:12;;;;;;;1.77;1.65;;;;;;;;;;5013110;28;94105;-74
2022/04/19 15:07:39;;;;;;;2.70;2.25;;;;;;;;;;5011995;28;93046;-75
2022/04/19 15:10:06;;;;;;;3.45;1.90;;;;;;;;;;4991699;28;94105;-75
2022/04/19 15:12:52;;;;;;;4.95;1.75;;;;;;;;;;4992379;28;93558;-75
2022/04/19 15:15:20;;;;;;;2.10;1.90;;;;;;;;;;4992919;28;92813;-76
2022/04/19 15:17:48;;;;;;;2.85;2.25;;;;;;;;;;4993704;28;93507;-75
2022/04/19 15:20:15;;;;;;;1.70;1.60;;;;;;;;;;4992513;28;94396;-75
2022/04/19 15:22:41;;;;;;;7.32;2.10;;;;;;;;;;4992646;28;92469;-75
2022/04/19 15:25:08;;;;;;;3.47;1.73;;;;;;;;;;4994545;28;95483;-75
2022/04/19 15:27:34;;;;;;;3.65;1.95;;;;;;;;;;4991858;28;92517;-75
2022/04/19 15:30:01;;;;;;;1.67;1.58;;;;;;;;;;4992729;28;94373;-75
2022/04/19 15:32:27;;;;;;;3.17;2.20;;;;;;;;;;4992501;28;93101;-75
2022/04/19 15:34:54;;;;;;;3.28;2.00;;;;;;;;;;4992084;28;92463;-76